Portada
METAR-TAF:

METAR-TAF

Aeroports :

Almeria, Espanya

latitud: 36-51N, longitud: 002-23W, altitud: 15 m

Observació

L'informe es va fer fa 33 minuts, a les 07:00 UTC
Vent 5 kt del Sud-Oest, variant entre Sud i Oest
Temperatura 23°C
Humitat 73%
Pressió 1015 hPa
Visibilitat 10 km o més
sense núvols per sota de 1500 mi sense presència de cumulonimbus.

METAR: LEAM 250700Z 22005KT 190V260 CAVOK 23/18 Q1015

Hora: 09:33 (07:33 UTC)

Pronòstic

L'informe es va fer fa 5 hores i 33 minuts, a les 02:00 UTC
Pronòstic vàlid del 25 a les 03 UTC al 26 a les 03 UTC
Vent 9 kt del Sud-Oest
Visibilitat 10 km o més
sense núvols per sota de 1500 mi sense presència de cumulonimbus.

TAF: LEAM 250200Z 2503/2603 23009KT CAVOK TX26/2513Z TN20/2603Z

Observacions i pronòstics meteorològics de més de 4000 aeroports (METAR i TAF).

Les estacions disponibles són els punts grocs i vermells al mapa.

Posi el ratolí al punt desitjat per veure el nom de l'estació.

Feu clic per veure les observacions i els pronòstics meteorològics.

Per canviar el mapa: feu clic els botons verds amb una creu de color negre per apropar; al botó verd amb un guió per allunyar la imatge; o en les fletxes verdes per a mapes adjacents.


METAR-TAF: